Time;durP1;ratioP1;P1;durP2;ratioP2;P2;SDS_P1;SDS_P2;PMS_P1;PMS_P2;Temp;Humidity;BMP_temperature;BMP_pressure;BME280_temperature;BME280_humidity;BME280_pressure;Samples;Min_cycle;Max_cycle;Signal;HPM_P1;HPM_P2
2022/07/20 00:02:12;;;;;;;5.58;2.98;;;22.70;70.30;;;;;;1958621;73;21012;-58
2022/07/20 00:04:41;;;;;;;5.60;3.45;;;22.70;70.30;;;;;;1958744;73;21040;-58
2022/07/20 00:07:11;;;;;;;3.35;2.55;;;22.60;70.30;;;;;;1958868;73;21493;-58
2022/07/20 00:12:28;;;;;;;4.60;3.42;;;22.60;70.70;;;;;;1958708;73;21145;-58
2022/07/20 00:14:57;;;;;;;10.15;3.22;;;22.60;70.70;;;;;;1958657;73;21024;-58
2022/07/20 00:17:26;;;;;;;10.05;3.58;;;22.60;70.60;;;;;;1958674;73;21070;-58
2022/07/20 00:19:56;;;;;;;8.78;4.08;;;22.50;70.30;;;;;;1958713;73;21016;-58
2022/07/20 00:22:25;;;;;;;8.80;3.30;;;22.50;70.40;;;;;;1958532;73;21008;-58
2022/07/20 00:24:55;;;;;;;7.78;3.95;;;22.50;70.70;;;;;;1958590;73;21016;-58
2022/07/20 00:27:24;;;;;;;7.90;3.47;;;22.40;71.00;;;;;;1958563;73;21080;-58
2022/07/20 00:29:53;;;;;;;5.00;3.12;;;22.40;71.20;;;;;;1958615;73;20976;-58
2022/07/20 00:32:22;;;;;;;7.33;3.58;;;22.40;71.40;;;;;;1958520;73;21020;-58
2022/07/20 00:34:52;;;;;;;4.45;3.05;;;22.50;72.20;;;;;;1958596;73;21059;-58
2022/07/20 00:37:21;;;;;;;9.73;3.42;;;22.50;71.50;;;;;;1958653;73;21040;-58
2022/07/20 00:39:51;;;;;;;6.45;3.12;;;22.50;71.30;;;;;;1958702;73;21009;-58
2022/07/20 00:42:20;;;;;;;6.30;3.37;;;22.50;71.30;;;;;;1958551;73;21137;-58
2022/07/20 00:44:49;;;;;;;6.17;3.47;;;22.50;71.30;;;;;;1958632;73;21125;-58
2022/07/20 00:47:19;;;;;;;7.60;3.60;;;22.60;71.30;;;;;;1958219;72;21045;-58
2022/07/20 00:49:49;;;;;;;13.98;4.67;;;22.60;71.40;;;;;;1958015;73;21115;-58
2022/07/20 00:52:18;;;;;;;9.25;3.90;;;22.50;71.50;;;;;;1957934;73;21036;-58
2022/07/20 00:54:48;;;;;;;7.72;3.72;;;22.50;71.40;;;;;;1957970;73;21086;-58
2022/07/20 00:57:18;;;;;;;7.95;4.53;;;22.50;71.40;;;;;;1958011;73;21082;-58
2022/07/20 00:59:48;;;;;;;8.85;3.95;;;22.50;71.40;;;;;;1957907;73;21001;-58
2022/07/20 01:02:17;;;;;;;8.88;3.83;;;22.50;71.30;;;;;;1957999;73;21188;-58
2022/07/20 01:04:46;;;;;;;9.45;3.80;;;22.50;71.60;;;;;;1957943;73;21078;-58
2022/07/20 01:07:16;;;;;;;8.63;3.77;;;22.40;71.60;;;;;;1957928;73;21012;-58
2022/07/20 01:09:46;;;;;;;6.65;4.42;;;22.40;71.70;;;;;;1957980;73;21016;-58
2022/07/20 01:12:15;;;;;;;8.60;4.45;;;22.40;71.90;;;;;;1957967;73;21016;-58
2022/07/20 01:14:45;;;;;;;11.48;4.25;;;22.40;72.00;;;;;;1957824;73;20989;-58
2022/07/20 01:17:15;;;;;;;12.80;4.78;;;22.40;71.90;;;;;;1957878;73;21074;-58
2022/07/20 01:19:44;;;;;;;9.58;5.08;;;22.40;71.90;;;;;;1958018;73;21008;-58
2022/07/20 01:22:13;;;;;;;7.58;4.12;;;22.30;71.70;;;;;;1958061;73;20985;-58
2022/07/20 01:24:43;;;;;;;8.65;5.17;;;22.20;71.80;;;;;;1958118;73;21009;-58
2022/07/20 01:27:12;;;;;;;13.43;4.90;;;22.20;72.20;;;;;;1958056;73;21082;-58
2022/07/20 01:29:42;;;;;;;8.00;3.90;;;22.30;72.20;;;;;;1958130;73;20989;-58
2022/07/20 01:32:11;;;;;;;6.05;3.72;;;22.30;72.00;;;;;;1958012;73;21016;-58
2022/07/20 01:34:41;;;;;;;7.78;3.80;;;22.30;71.80;;;;;;1958077;73;21013;-58
2022/07/20 01:37:10;;;;;;;5.45;3.98;;;22.30;71.70;;;;;;1958123;73;21106;-58
2022/07/20 01:39:39;;;;;;;12.10;4.17;;;22.20;71.70;;;;;;1958086;73;21153;-58
2022/07/20 01:42:09;;;;;;;7.78;4.20;;;22.10;71.90;;;;;;1958010;73;21157;-58
2022/07/20 01:44:38;;;;;;;8.20;4.67;;;22.10;72.20;;;;;;1958059;73;21068;-58
2022/07/20 01:47:08;;;;;;;6.50;3.45;;;22.10;72.50;;;;;;1958096;73;21060;-58
2022/07/20 01:49:37;;;;;;;5.62;3.22;;;22.10;72.50;;;;;;1958699;73;21024;-58
2022/07/20 01:52:07;;;;;;;5.42;3.30;;;22.10;72.60;;;;;;1958773;73;21021;-58
2022/07/20 01:54:36;;;;;;;10.00;4.28;;;22.10;72.80;;;;;;1958730;73;21009;-58
2022/07/20 01:57:05;;;;;;;7.45;4.75;;;22.10;72.50;;;;;;1958645;73;21436;-58
2022/07/20 01:59:34;;;;;;;6.72;3.50;;;22.10;72.30;;;;;;1958783;73;20996;-58
2022/07/20 02:02:04;;;;;;;5.50;3.22;;;22.00;72.30;;;;;;1958749;73;21075;-59
2022/07/20 02:04:35;;;;;;;9.50;3.55;;;22.00;72.60;;;;;;1958235;73;21016;-58
2022/07/20 02:07:05;;;;;;;6.62;3.80;;;22.00;72.60;;;;;;1958719;73;21012;-58
2022/07/20 02:09:34;;;;;;;7.87;4.37;;;22.00;73.00;;;;;;1958680;73;21017;-58
2022/07/20 02:12:03;;;;;;;5.45;3.87;;;22.00;73.00;;;;;;1958702;73;21005;-58
2022/07/20 02:14:33;;;;;;;8.20;3.80;;;22.00;73.00;;;;;;1958740;73;21056;-58
2022/07/20 02:17:02;;;;;;;6.55;3.27;;;22.00;73.10;;;;;;1958692;73;21062;-58
2022/07/20 02:19:31;;;;;;;9.38;3.87;;;22.00;73.20;;;;;;1958671;73;21032;-58
2022/07/20 02:22:01;;;;;;;13.50;3.77;;;22.00;73.20;;;;;;1958712;73;21004;-58
2022/07/20 02:24:30;;;;;;;4.87;4.25;;;22.00;72.70;;;;;;1958648;73;21048;-58
2022/07/20 02:26:59;;;;;;;8.75;4.15;;;22.00;73.10;;;;;;1958625;73;21039;-58
2022/07/20 02:29:29;;;;;;;9.93;4.67;;;21.90;73.40;;;;;;1958591;73;21048;-58
2022/07/20 02:31:58;;;;;;;14.98;4.55;;;21.90;73.60;;;;;;1958785;73;21000;-58
2022/07/20 02:34:28;;;;;;;9.73;3.62;;;21.90;73.60;;;;;;1958621;73;21029;-58
2022/07/20 02:36:57;;;;;;;7.40;3.60;;;21.90;73.50;;;;;;1958630;73;20972;-58
2022/07/20 02:39:26;;;;;;;6.97;3.98;;;21.90;73.80;;;;;;1958761;73;20992;-59
2022/07/20 02:41:55;;;;;;;8.90;4.05;;;22.00;73.80;;;;;;1958643;73;20996;-58
2022/07/20 02:44:25;;;;;;;5.87;4.00;;;22.00;73.80;;;;;;1958750;73;21017;-59
2022/07/20 02:46:54;;;;;;;7.03;3.65;;;22.10;73.70;;;;;;1958697;73;21549;-58
2022/07/20 02:49:24;;;;;;;15.80;4.62;;;22.10;73.50;;;;;;1958936;73;21086;-58
2022/07/20 02:51:53;;;;;;;10.72;4.30;;;22.10;73.30;;;;;;1958719;73;21145;-58
2022/07/20 02:54:23;;;;;;;5.65;3.62;;;22.20;73.40;;;;;;1958699;73;21074;-58
2022/07/20 02:56:52;;;;;;;10.03;4.20;;;22.10;73.40;;;;;;1958572;73;21009;-58
2022/07/20 02:59:22;;;;;;;8.10;5.05;;;22.10;73.60;;;;;;1958729;73;21008;-58
2022/07/20 03:01:51;;;;;;;6.30;3.42;;;22.10;73.30;;;;;;1958726;73;21097;-58
2022/07/20 03:04:21;;;;;;;9.38;4.10;;;22.10;73.30;;;;;;1958761;73;21106;-58
2022/07/20 03:06:50;;;;;;;6.92;3.95;;;22.10;73.50;;;;;;1958612;73;21012;-59
2022/07/20 03:09:19;;;;;;;6.70;4.08;;;22.00;73.40;;;;;;1958582;73;21044;-59
2022/07/20 03:11:49;;;;;;;9.20;4.50;;;22.00;73.70;;;;;;1958734;73;21012;-58
2022/07/20 03:14:18;;;;;;;11.53;4.30;;;22.00;73.80;;;;;;1958860;73;21005;-58
2022/07/20 03:16:50;;;;;;;6.92;4.33;;;22.00;74.00;;;;;;1958762;73;21070;-59
2022/07/20 03:19:18;;;;;;;7.67;4.67;;;22.10;73.80;;;;;;1958691;73;21102;-58
2022/07/20 03:21:48;;;;;;;9.10;4.90;;;22.10;73.70;;;;;;1958788;73;21102;-58
2022/07/20 03:24:17;;;;;;;9.58;5.45;;;22.20;73.60;;;;;;1958735;73;21071;-58
2022/07/20 03:26:47;;;;;;;12.43;4.70;;;22.10;73.60;;;;;;1958726;73;21016;-58
2022/07/20 03:29:16;;;;;;;15.83;5.78;;;22.10;73.60;;;;;;1958699;73;21078;-58
2022/07/20 03:31:45;;;;;;;8.03;4.45;;;22.20;73.60;;;;;;1958844;73;21020;-58
2022/07/20 03:34:14;;;;;;;10.35;5.60;;;22.20;73.50;;;;;;1958786;73;21017;-58
2022/07/20 03:36:44;;;;;;;11.75;4.72;;;22.20;73.50;;;;;;1958654;73;21059;-58
2022/07/20 03:39:13;;;;;;;11.25;5.87;;;22.20;73.50;;;;;;1958712;73;21074;-58
2022/07/20 03:41:42;;;;;;;12.70;4.87;;;22.20;73.50;;;;;;1958639;73;21078;-58
2022/07/20 03:44:12;;;;;;;14.20;5.65;;;22.20;73.20;;;;;;1958698;73;20992;-58
2022/07/20 03:46:42;;;;;;;13.22;5.35;;;22.20;73.10;;;;;;1958618;73;20997;-59
2022/07/20 03:49:11;;;;;;;8.35;5.12;;;22.30;73.00;;;;;;1958564;73;21060;-58
2022/07/20 03:51:40;;;;;;;9.03;4.45;;;22.40;73.00;;;;;;1958628;73;21480;-58
2022/07/20 03:54:10;;;;;;;12.93;5.05;;;22.60;72.80;;;;;;1958611;73;21056;-58
2022/07/20 03:56:43;;;;;;;10.75;5.37;;;22.70;71.90;;;;;;1958520;73;21055;-58
2022/07/20 03:59:13;;;;;;;12.25;5.40;;;22.90;71.40;;;;;;1958614;73;21009;-58
2022/07/20 04:01:42;;;;;;;8.28;4.30;;;23.00;70.50;;;;;;1958681;73;21070;-58
2022/07/20 04:04:11;;;;;;;8.95;4.15;;;23.00;70.20;;;;;;1958770;73;21071;-58
2022/07/20 04:06:40;;;;;;;7.83;3.95;;;23.00;69.90;;;;;;1958627;73;20997;-58
2022/07/20 04:09:10;;;;;;;10.48;4.70;;;23.00;69.40;;;;;;1958680;73;21048;-58
2022/07/20 04:11:39;;;;;;;14.78;4.20;;;23.00;69.40;;;;;;1958635;73;21031;-58
2022/07/20 04:14:08;;;;;;;12.78;5.33;;;22.90;69.40;;;;;;1958832;73;21008;-58
2022/07/20 04:16:37;;;;;;;11.03;4.42;;;23.00;69.30;;;;;;1958659;73;21082;-58
2022/07/20 04:19:06;;;;;;;8.73;4.33;;;22.90;69.50;;;;;;1958627;73;21082;-58
2022/07/20 04:21:36;;;;;;;10.15;4.85;;;23.00;69.20;;;;;;1958624;73;21013;-58
2022/07/20 04:24:05;;;;;;;14.83;7.35;;;23.00;69.10;;;;;;1958688;73;21040;-59
2022/07/20 04:26:35;;;;;;;17.17;7.97;;;23.10;68.80;;;;;;1958813;73;21020;-59
2022/07/20 04:29:04;;;;;;;10.68;5.33;;;23.10;68.60;;;;;;1958637;73;21067;-59
2022/07/20 04:31:33;;;;;;;9.58;6.10;;;23.10;68.70;;;;;;1958712;73;20980;-59
2022/07/20 04:34:03;;;;;;;13.78;6.67;;;23.10;68.30;;;;;;1958558;73;21016;-59
2022/07/20 04:36:32;;;;;;;10.70;5.47;;;23.20;68.30;;;;;;1958551;73;21067;-59
2022/07/20 04:39:02;;;;;;;16.52;10.00;;;23.20;68.20;;;;;;1958710;73;20993;-59
2022/07/20 04:41:31;;;;;;;16.05;7.28;;;23.30;67.90;;;;;;1958598;73;21000;-59
2022/07/20 04:44:00;;;;;;;15.13;7.70;;;23.30;67.80;;;;;;1958625;73;21056;-59
2022/07/20 04:46:30;;;;;;;13.53;7.35;;;23.40;67.90;;;;;;1958525;73;21126;-59
2022/07/20 04:48:59;;;;;;;15.13;7.28;;;23.50;67.70;;;;;;1958309;73;21044;-58
2022/07/20 04:51:29;;;;;;;16.52;6.67;;;23.50;67.40;;;;;;1957746;73;21048;-58
2022/07/20 04:53:58;;;;;;;20.57;8.98;;;23.60;67.50;;;;;;1958017;73;21074;-58
2022/07/20 04:56:27;;;;;;;24.80;13.75;;;23.70;67.30;;;;;;1957948;73;21041;-58
2022/07/20 04:58:57;;;;;;;23.50;12.78;;;23.80;66.70;;;;;;1957986;73;21078;-57
2022/07/20 05:01:26;;;;;;;16.12;8.70;;;23.90;66.80;;;;;;1957916;73;21012;-57
2022/07/20 05:03:55;;;;;;;15.75;8.73;;;24.00;66.60;;;;;;1957892;73;21004;-58
2022/07/20 05:06:25;;;;;;;16.17;8.00;;;24.10;66.50;;;;;;1957971;73;21012;-58
2022/07/20 05:08:54;;;;;;;13.98;8.40;;;24.20;66.50;;;;;;1958086;73;20993;-58
2022/07/20 05:11:23;;;;;;;17.77;9.40;;;24.20;66.40;;;;;;1957977;73;21016;-58
2022/07/20 05:13:53;;;;;;;32.00;11.05;;;24.30;66.40;;;;;;1957907;73;21012;-58
2022/07/20 05:16:22;;;;;;;22.90;9.55;;;24.50;66.20;;;;;;1957920;73;21016;-57
2022/07/20 05:18:51;;;;;;;18.00;6.70;;;24.60;66.10;;;;;;1958024;73;21017;-58
2022/07/20 05:21:21;;;;;;;15.63;7.15;;;24.70;66.10;;;;;;1958021;73;21094;-58
2022/07/20 05:23:50;;;;;;;16.45;7.45;;;24.80;65.90;;;;;;1957954;73;21122;-58
2022/07/20 05:26:19;;;;;;;12.23;7.20;;;24.90;65.60;;;;;;1958012;73;21048;-58
2022/07/20 05:28:49;;;;;;;12.23;5.80;;;25.00;65.50;;;;;;1958187;73;21036;-58
2022/07/20 05:31:18;;;;;;;18.32;7.15;;;25.10;65.50;;;;;;1958191;73;21086;-58
2022/07/20 05:33:48;;;;;;;12.53;5.53;;;25.20;65.30;;;;;;1958289;73;20997;-58
2022/07/20 05:36:17;;;;;;;8.95;4.62;;;25.20;65.00;;;;;;1958077;73;21033;-58
2022/07/20 05:38:47;;;;;;;14.68;7.22;;;25.30;65.10;;;;;;1958164;73;21059;-58
2022/07/20 05:41:16;;;;;;;6.62;4.90;;;25.50;64.90;;;;;;1958037;73;21086;-58
2022/07/20 05:43:46;;;;;;;11.45;5.10;;;25.50;63.80;;;;;;1958168;73;21022;-58
2022/07/20 05:46:15;;;;;;;9.25;4.30;;;25.50;64.00;;;;;;1958141;73;21000;-58
2022/07/20 05:48:45;;;;;;;7.80;4.33;;;25.60;64.40;;;;;;1958076;73;21074;-58
2022/07/20 05:51:14;;;;;;;12.40;4.42;;;25.70;63.90;;;;;;1958774;73;21033;-58
2022/07/20 05:53:45;;;;;;;7.05;4.10;;;25.80;63.40;;;;;;1958874;73;21013;-59
2022/07/20 05:56:14;;;;;;;8.83;4.37;;;25.90;63.20;;;;;;1958933;73;21024;-58
2022/07/20 05:58:43;;;;;;;12.30;4.15;;;25.90;62.80;;;;;;1958853;73;21066;-58
2022/07/20 06:01:13;;;;;;;5.50;4.67;;;25.90;62.60;;;;;;1958727;73;21102;-58
2022/07/20 06:03:42;;;;;;;7.50;4.25;;;25.80;62.80;;;;;;1958780;73;21013;-58
2022/07/20 06:06:12;;;;;;;13.75;4.55;;;25.90;62.70;;;;;;1958699;73;20993;-58
2022/07/20 06:08:41;;;;;;;7.40;3.85;;;25.80;62.80;;;;;;1958882;73;21012;-58
2022/07/20 06:11:11;;;;;;;7.67;3.80;;;25.90;62.60;;;;;;1958813;73;21024;-59
2022/07/20 06:13:40;;;;;;;8.38;4.00;;;25.90;62.40;;;;;;1958835;73;21106;-58
2022/07/20 06:16:09;;;;;;;7.92;4.00;;;25.90;62.40;;;;;;1958646;73;21066;-58
2022/07/20 06:18:39;;;;;;;5.33;3.87;;;26.10;62.40;;;;;;1958698;73;21012;-58
2022/07/20 06:21:08;;;;;;;14.93;5.42;;;26.20;62.20;;;;;;1958549;73;21078;-58
2022/07/20 06:23:37;;;;;;;13.70;4.40;;;26.30;62.00;;;;;;1958738;73;21094;-58
2022/07/20 06:26:07;;;;;;;9.43;4.25;;;26.40;61.90;;;;;;1958620;73;21082;-59
2022/07/20 06:28:37;;;;;;;13.03;5.08;;;26.60;61.70;;;;;;1958614;73;20989;-58
2022/07/20 06:31:06;;;;;;;8.88;5.00;;;26.70;61.60;;;;;;1958638;73;21008;-58
2022/07/20 06:33:36;;;;;;;7.97;4.45;;;26.80;61.60;;;;;;1958602;73;21107;-58
2022/07/20 06:36:05;;;;;;;7.62;4.42;;;26.80;61.70;;;;;;1958542;73;21095;-58
2022/07/20 06:38:38;;;;;;;11.30;4.72;;;26.90;61.40;;;;;;1958752;73;21098;-58
2022/07/20 06:41:07;;;;;;;6.62;4.20;;;27.00;60.80;;;;;;1958808;73;21176;-58
2022/07/20 06:43:36;;;;;;;9.75;4.03;;;26.90;60.50;;;;;;1958694;73;20997;-58
2022/07/20 06:46:06;;;;;;;7.62;4.20;;;26.90;60.50;;;;;;1958633;73;21596;-59
2022/07/20 06:48:36;;;;;;;15.38;3.98;;;27.00;60.50;;;;;;1958794;73;21017;-59
2022/07/20 06:51:06;;;;;;;5.33;3.45;;;27.00;59.60;;;;;;1958335;73;21060;-59
2022/07/20 06:53:35;;;;;;;5.08;3.52;;;27.00;59.30;;;;;;1958072;73;21032;-58
2022/07/20 06:56:05;;;;;;;8.13;3.25;;;27.00;58.90;;;;;;1957926;73;21017;-58
2022/07/20 06:58:34;;;;;;;6.85;3.85;;;27.00;59.00;;;;;;1957963;73;21074;-58
2022/07/20 07:01:04;;;;;;;9.33;3.95;;;27.10;58.80;;;;;;1958130;73;21021;-59
2022/07/20 07:03:33;;;;;;;11.55;4.17;;;27.10;59.20;;;;;;1958117;73;21008;-58
2022/07/20 07:06:02;;;;;;;5.47;3.50;;;27.20;59.40;;;;;;1958058;73;21107;-58
2022/07/20 07:08:32;;;;;;;9.63;3.60;;;27.30;59.30;;;;;;1958096;73;21000;-59
2022/07/20 07:11:01;;;;;;;12.37;3.75;;;27.40;58.90;;;;;;1957958;73;21046;-58
2022/07/20 07:13:30;;;;;;;9.53;3.80;;;27.40;58.10;;;;;;1958056;73;21082;-58
2022/07/20 07:15:59;;;;;;;11.97;4.95;;;27.50;58.20;;;;;;1957865;73;21082;-58
2022/07/20 07:18:29;;;;;;;20.57;9.78;;;27.50;58.70;;;;;;1958017;73;21008;-58
2022/07/20 07:20:58;;;;;;;14.60;6.60;;;27.60;58.50;;;;;;1958099;73;21009;-58
2022/07/20 07:23:27;;;;;;;18.42;12.50;;;27.70;58.30;;;;;;1958011;73;20989;-58
2022/07/20 07:25:57;;;;;;;18.60;12.50;;;27.80;58.10;;;;;;1958049;73;20985;-59
2022/07/20 07:28:26;;;;;;;19.07;8.78;;;27.70;57.90;;;;;;1958108;73;21008;-58
2022/07/20 07:30:55;;;;;;;8.48;5.42;;;27.60;58.10;;;;;;1957967;73;21028;-58
2022/07/20 07:33:27;;;;;;;8.98;4.25;;;27.60;57.40;;;;;;1958055;73;21444;-58
2022/07/20 07:35:57;;;;;;;7.97;3.47;;;27.60;58.00;;;;;;1957838;73;21024;-58
2022/07/20 07:38:26;;;;;;;4.65;3.75;;;27.70;57.70;;;;;;1957912;73;21037;-58
2022/07/20 07:40:55;;;;;;;9.15;3.92;;;27.90;57.40;;;;;;1958005;73;21074;-58
2022/07/20 07:43:25;;;;;;;7.47;3.70;;;28.00;57.50;;;;;;1956955;73;21086;-63
2022/07/20 07:45:54;;;;;;;7.37;4.30;;;28.00;57.40;;;;;;1957081;73;21193;-60
2022/07/20 07:48:24;;;;;;;12.63;4.10;;;28.00;57.20;;;;;;1957399;73;20992;-61
2022/07/20 07:50:53;;;;;;;9.65;4.03;;;28.10;57.20;;;;;;1959717;73;21085;-63
2022/07/20 07:53:23;;;;;;;4.87;3.40;;;28.10;56.80;;;;;;1968026;73;20970;-63
2022/07/20 07:55:52;;;;;;;8.95;3.70;;;28.20;56.50;;;;;;1968054;73;21006;-63
2022/07/20 07:58:22;;;;;;;8.45;3.85;;;28.30;56.20;;;;;;1967939;73;21108;-62
2022/07/20 08:00:51;;;;;;;7.97;3.37;;;28.30;55.70;;;;;;1967901;73;21049;-62
2022/07/20 08:03:22;;;;;;;10.38;3.98;;;28.30;55.50;;;;;;1968140;73;21025;-60
2022/07/20 08:05:51;;;;;;;8.90;3.83;;;28.30;55.80;;;;;;1967903;73;21041;-62
2022/07/20 08:08:20;;;;;;;6.83;3.98;;;28.40;55.60;;;;;;1967991;73;21073;-63
2022/07/20 08:10:50;;;;;;;8.10;4.10;;;28.40;54.90;;;;;;1968083;73;21452;-65
2022/07/20 08:13:19;;;;;;;5.87;3.83;;;28.40;54.80;;;;;;1967830;73;21061;-63
2022/07/20 08:15:49;;;;;;;8.28;4.03;;;28.40;54.70;;;;;;1968129;73;20966;-64
2022/07/20 08:18:18;;;;;;;5.30;3.30;;;28.40;54.50;;;;;;1968123;73;20998;-63
2022/07/20 08:20:47;;;;;;;8.10;3.77;;;28.50;54.50;;;;;;1967922;73;21022;-63
2022/07/20 08:23:16;;;;;;;5.83;3.65;;;28.60;54.40;;;;;;1968297;73;21059;-64
2022/07/20 08:25:46;;;;;;;4.22;3.45;;;28.70;54.20;;;;;;1967950;73;20959;-63
2022/07/20 08:28:17;;;;;;;5.08;3.45;;;28.80;53.30;;;;;;1968152;73;20995;-61
2022/07/20 08:30:48;;;;;;;6.00;4.17;;;28.70;52.50;;;;;;1968067;73;20990;-63
2022/07/20 08:33:17;;;;;;;5.83;3.05;;;28.80;51.90;;;;;;1967993;73;21059;-64
2022/07/20 08:35:47;;;;;;;8.20;3.77;;;28.80;51.90;;;;;;1967888;73;21060;-61
2022/07/20 08:38:17;;;;;;;6.75;3.98;;;28.90;52.00;;;;;;1968061;73;20970;-62
2022/07/20 08:40:46;;;;;;;6.62;3.77;;;29.00;51.90;;;;;;1967975;73;21075;-63
2022/07/20 08:43:17;;;;;;;12.10;4.75;;;29.00;51.80;;;;;;1968115;73;21143;-62
2022/07/20 08:45:47;;;;;;;7.90;3.65;;;29.00;50.70;;;;;;1967973;73;21476;-60
2022/07/20 08:48:19;;;;;;;5.05;3.47;;;29.10;51.00;;;;;;1968052;73;21045;-59
2022/07/20 08:50:49;;;;;;;4.75;3.02;;;29.10;51.30;;;;;;1967781;73;20978;-64
2022/07/20 08:53:19;;;;;;;9.35;3.30;;;29.10;50.40;;;;;;1968237;73;21091;-65
2022/07/20 08:55:49;;;;;;;10.75;3.52;;;28.90;50.70;;;;;;1967945;73;21045;-64
2022/07/20 08:58:18;;;;;;;7.37;3.22;;;28.90;51.00;;;;;;1968131;73;22055;-62
2022/07/20 09:00:47;;;;;;;3.50;3.20;;;29.00;50.90;;;;;;1968017;73;21030;-60
2022/07/20 09:03:17;;;;;;;5.25;3.10;;;29.10;50.90;;;;;;1967846;73;21092;-64
2022/07/20 09:05:47;;;;;;;10.63;3.30;;;29.20;50.10;;;;;;1967981;73;21119;-63
2022/07/20 09:08:17;;;;;;;5.87;2.85;;;29.10;49.00;;;;;;1964854;73;21482;-61
2022/07/20 09:10:46;;;;;;;7.85;2.92;;;29.10;48.40;;;;;;1968183;73;21111;-62
2022/07/20 09:13:21;;;;;;;6.03;2.60;;;29.10;48.50;;;;;;1968150;73;21049;-63
2022/07/20 09:15:53;;;;;;;5.10;3.10;;;29.10;48.60;;;;;;1967995;73;21010;-65
2022/07/20 09:18:25;;;;;;;9.05;3.10;;;29.20;48.60;;;;;;1968277;73;21049;-63
2022/07/20 09:21:00;;;;;;;9.53;3.70;;;29.30;48.90;;;;;;1968031;73;20990;-63
2022/07/20 09:23:33;;;;;;;6.50;3.85;;;29.30;48.10;;;;;;1967918;73;21140;-63
2022/07/20 09:26:04;;;;;;;4.05;3.45;;;29.30;47.80;;;;;;1923216;74;21093;-63
2022/07/20 09:28:38;;;;;;;9.80;3.08;;;29.30;47.90;;;;;;1925844;74;21029;-60
2022/07/20 09:31:22;;;;;;;6.62;2.80;;;29.40;47.70;;;;;;1926274;74;21091;-60
2022/07/20 09:34:13;;;;;;;5.55;3.33;;;29.50;46.80;;;;;;1924637;74;21085;-62
2022/07/20 09:36:45;;;;;;;6.25;3.22;;;29.60;46.80;;;;;;1926193;74;21065;-60
2022/07/20 09:39:19;;;;;;;4.62;3.20;;;29.60;47.10;;;;;;1926126;74;21038;-62
2022/07/20 09:41:56;;;;;;;7.40;2.75;;;29.70;46.10;;;;;;1926103;74;21089;-61
2022/07/20 09:44:27;;;;;;;6.00;3.10;;;29.70;46.20;;;;;;1926048;74;21139;-62
2022/07/20 09:46:58;;;;;;;4.60;3.20;;;29.80;46.20;;;;;;1926016;74;21050;-66
2022/07/20 09:49:34;;;;;;;3.95;2.95;;;29.80;46.40;;;;;;1926006;74;21121;-67
2022/07/20 09:52:06;;;;;;;10.08;3.85;;;29.80;46.20;;;;;;1924887;74;21180;-62
2022/07/20 09:54:35;;;;;;;5.92;3.60;;;29.80;46.10;;;;;;1861709;77;21021;-62
2022/07/20 09:57:06;;;;;;;10.85;3.60;;;29.70;46.40;;;;;;1932732;74;21031;-69
2022/07/20 09:59:36;;;;;;;8.68;3.52;;;29.70;46.50;;;;;;1932840;74;21140;-66
2022/07/20 10:02:05;;;;;;;4.78;3.15;;;29.80;46.10;;;;;;1932717;74;21089;-66
2022/07/20 10:04:35;;;;;;;8.13;3.00;;;29.90;45.50;;;;;;1932677;74;21067;-67
2022/07/20 10:07:06;;;;;;;7.97;3.22;;;30.00;45.50;;;;;;1932774;74;21058;-66
2022/07/20 10:09:36;;;;;;;5.25;2.87;;;30.10;45.50;;;;;;1932986;74;21035;-67
2022/07/20 10:12:05;;;;;;;5.83;3.17;;;30.20;45.20;;;;;;1932572;74;21113;-62
2022/07/20 10:14:35;;;;;;;16.50;4.95;;;30.10;45.10;;;;;;1932828;74;21086;-67
2022/07/20 10:17:05;;;;;;;4.97;3.52;;;30.10;45.20;;;;;;1932720;74;21035;-66
2022/07/20 10:19:43;;;;;;;10.08;3.80;;;30.00;45.30;;;;;;1932997;74;21062;-71
2022/07/20 10:22:12;;;;;;;6.33;3.08;;;30.00;45.00;;;;;;1932832;74;21174;-63
2022/07/20 10:24:47;;;;;;;4.70;3.22;;;30.00;45.10;;;;;;1932902;74;21047;-69
2022/07/20 10:27:16;;;;;;;5.85;2.50;;;30.10;44.90;;;;;;1932106;73;21102;-68
2022/07/20 10:29:50;;;;;;;4.80;2.87;;;30.10;44.40;;;;;;1932892;74;21165;-64
2022/07/20 10:32:24;;;;;;;7.08;3.37;;;30.20;44.60;;;;;;1932870;74;21094;-66
2022/07/20 10:34:55;;;;;;;4.72;2.72;;;30.10;44.80;;;;;;1932720;74;21070;-63
2022/07/20 10:37:39;;;;;;;6.10;3.08;;;30.20;44.40;;;;;;1932970;74;21090;-66
2022/07/20 10:40:11;;;;;;;5.27;3.00;;;30.20;44.40;;;;;;1933112;74;21152;-65
2022/07/20 10:42:43;;;;;;;9.90;2.70;;;30.30;44.70;;;;;;1932715;74;21007;-64
2022/07/20 10:45:24;;;;;;;3.92;2.10;;;30.40;43.80;;;;;;1932796;74;21626;-61
2022/07/20 10:47:59;;;;;;;12.95;3.12;;;30.40;43.60;;;;;;1932637;74;21074;-63
2022/07/20 10:50:39;;;;;;;7.10;2.92;;;30.50;43.90;;;;;;1932701;74;21188;-66
2022/07/20 10:53:18;;;;;;;7.17;2.25;;;30.50;43.50;;;;;;1949116;73;21045;-64
2022/07/20 10:55:53;;;;;;;2.60;2.10;;;30.50;42.60;;;;;;1973863;73;21034;-63
2022/07/20 10:58:25;;;;;;;4.03;2.22;;;30.50;42.30;;;;;;1973346;73;21076;-64
2022/07/20 11:00:57;;;;;;;7.17;2.72;;;30.40;42.30;;;;;;1972731;73;21584;-65
2022/07/20 11:03:38;;;;;;;4.42;2.60;;;30.40;43.00;;;;;;1974042;73;20994;-61
2022/07/20 11:06:15;;;;;;;6.90;3.90;;;30.30;42.80;;;;;;1974013;73;21065;-63
2022/07/20 11:08:53;;;;;;;8.55;2.75;;;30.20;42.60;;;;;;1974294;73;21110;-65
2022/07/20 11:11:25;;;;;;;8.58;2.40;;;30.20;42.20;;;;;;1974016;73;21083;-62
2022/07/20 11:13:55;;;;;;;6.22;3.10;;;30.20;42.10;;;;;;1974321;73;21076;-64
2022/07/20 11:16:26;;;;;;;5.87;2.50;;;30.30;42.40;;;;;;1974151;73;21060;-64
2022/07/20 11:18:56;;;;;;;4.80;2.70;;;30.40;42.80;;;;;;1974276;73;21083;-64
2022/07/20 11:21:31;;;;;;;15.00;2.60;;;30.50;42.40;;;;;;1974422;73;21464;-65
2022/07/20 11:24:01;;;;;;;7.95;2.27;;;30.50;42.20;;;;;;1974212;73;21143;-67
2022/07/20 11:26:30;;;;;;;3.98;2.27;;;30.70;41.70;;;;;;1974236;73;21060;-66
2022/07/20 11:29:00;;;;;;;5.08;1.85;;;30.70;41.40;;;;;;1974353;73;21009;-67
2022/07/20 11:31:30;;;;;;;4.67;2.12;;;30.60;41.10;;;;;;1974173;73;21021;-66
2022/07/20 11:34:00;;;;;;;26.40;2.90;;;30.40;41.30;;;;;;1974066;73;21072;-71
2022/07/20 11:36:32;;;;;;;8.78;2.08;;;30.40;41.40;;;;;;1974083;73;21072;-67
2022/07/20 11:39:04;;;;;;;8.13;2.10;;;30.40;41.10;;;;;;1974162;73;21013;-70
2022/07/20 11:41:35;;;;;;;4.10;1.75;;;30.40;41.00;;;;;;1973999;73;21095;-72
2022/07/20 11:44:06;;;;;;;2.85;1.90;;;30.40;40.40;;;;;;1974103;73;21091;-71
2022/07/20 11:46:43;;;;;;;3.55;2.00;;;30.50;40.70;;;;;;1974130;73;21017;-64
2022/07/20 11:49:15;;;;;;;6.15;2.12;;;30.60;40.30;;;;;;1974267;73;21071;-67
2022/07/20 11:51:47;;;;;;;4.35;1.95;;;30.60;40.60;;;;;;1974123;73;21060;-64
2022/07/20 11:54:21;;;;;;;7.62;1.92;;;30.80;40.80;;;;;;1959471;72;21034;-66
2022/07/20 11:56:51;;;;;;;3.83;1.70;;;30.90;39.90;;;;;;1957630;73;21150;-65
2022/07/20 11:59:21;;;;;;;9.43;3.00;;;31.00;39.60;;;;;;1957352;73;20986;-72
2022/07/20 12:01:53;;;;;;;5.42;2.40;;;31.00;39.70;;;;;;1957169;73;21042;-65
2022/07/20 12:04:23;;;;;;;4.22;2.27;;;31.10;39.60;;;;;;1957412;73;21030;-67
2022/07/20 12:06:58;;;;;;;6.72;2.17;;;31.10;38.80;;;;;;1957242;73;21073;-60
2022/07/20 12:09:36;;;;;;;6.00;2.12;;;31.10;39.40;;;;;;1957168;73;21068;-61
2022/07/20 12:12:08;;;;;;;5.20;2.90;;;31.10;39.00;;;;;;1957141;73;21065;-64
2022/07/20 12:14:42;;;;;;;3.75;2.27;;;31.10;38.90;;;;;;1957607;73;21014;-67
2022/07/20 12:17:12;;;;;;;;;;;31.10;38.60;;;;;;1960895;73;21014;-69
2022/07/20 12:19:42;;;;;;;9.90;3.20;;;31.20;38.80;;;;;;1957956;73;20101;-69
2022/07/20 12:22:19;;;;;;;4.47;2.15;;;31.20;39.00;;;;;;1958005;73;21014;-70
2022/07/20 12:25:02;;;;;;;5.20;1.98;;;31.20;39.00;;;;;;1957930;73;21034;-69
2022/07/20 12:27:34;;;;;;;3.60;1.97;;;31.10;38.50;;;;;;1958112;73;21113;-69
2022/07/20 12:30:24;;;;;;;3.17;2.22;;;30.90;38.10;;;;;;1957885;73;20998;-69
2022/07/20 12:33:08;;;;;;;6.45;2.40;;;30.80;38.70;;;;;;1896808;76;21040;-68
2022/07/20 12:35:41;;;;;;;4.30;2.65;;;30.80;39.00;;;;;;1900202;75;21047;-68
2022/07/20 12:38:17;;;;;;;6.15;2.45;;;30.80;38.90;;;;;;1875429;74;21085;-68
2022/07/20 12:40:48;;;;;;;9.75;2.17;;;30.80;38.60;;;;;;1879803;75;21116;-68
2022/07/20 12:43:32;;;;;;;7.97;2.20;;;30.80;38.50;;;;;;1879688;76;21096;-67
2022/07/20 12:46:07;;;;;;;6.85;3.20;;;30.70;38.70;;;;;;1879920;76;21006;-67
2022/07/20 12:48:41;;;;;;;8.90;2.40;;;30.60;41.00;;;;;;1879660;75;21030;-67
2022/07/20 12:51:10;;;;;;;;;;;30.50;41.90;;;;;;1882500;76;21468;-67
2022/07/20 12:53:41;;;;;;;9.48;2.70;;;30.40;42.20;;;;;;1879629;75;20144;-66
2022/07/20 12:56:11;;;;;;;5.65;2.37;;;30.30;42.40;;;;;;1879492;76;21108;-66
2022/07/20 12:58:41;;;;;;;2.92;2.40;;;30.20;43.10;;;;;;1879696;76;21116;-66
2022/07/20 13:01:11;;;;;;;7.35;2.20;;;30.10;43.20;;;;;;1879727;75;21002;-66
2022/07/20 13:03:41;;;;;;;5.85;2.40;;;30.00;43.30;;;;;;1879635;76;21100;-66
2022/07/20 13:06:10;;;;;;;4.17;2.70;;;30.00;43.80;;;;;;1879653;76;21073;-66